Time;durP1;ratioP1;P1;durP2;ratioP2;P2;SDS_P1;SDS_P2;PMS_P1;PMS_P2;Temp;Humidity;BMP_temperature;BMP_pressure;BME280_temperature;BME280_humidity;BME280_pressure;Samples;Min_cycle;Max_cycle;Signal;HPM_P1;HPM_P2
2023/08/14 00:00:32;;;;;;;7.95;4.90;;;15.70;99.90;;;;;;5118731;27;20101;-75
2023/08/14 00:02:57;;;;;;;8.32;5.22;;;15.70;99.90;;;;;;5118648;27;20549;-75
2023/08/14 00:05:23;;;;;;;8.38;5.10;;;15.70;99.90;;;;;;5137322;27;20489;-75
2023/08/14 00:07:48;;;;;;;9.52;4.82;;;15.60;99.90;;;;;;5136362;27;20108;-75
2023/08/14 00:10:14;;;;;;;9.35;5.32;;;15.60;99.90;;;;;;5118765;27;20039;-75
2023/08/14 00:12:40;;;;;;;7.93;4.32;;;15.50;99.90;;;;;;5118651;27;20047;-75
2023/08/14 00:15:07;;;;;;;9.55;5.57;;;15.50;99.90;;;;;;5118516;27;20047;-75
2023/08/14 00:17:35;;;;;;;9.68;4.95;;;15.60;99.90;;;;;;5118734;27;20039;-75
2023/08/14 00:20:02;;;;;;;7.78;4.88;;;15.50;99.90;;;;;;5118432;27;20432;-75
2023/08/14 00:22:28;;;;;;;9.18;5.05;;;15.50;99.90;;;;;;5136639;27;20095;-75
2023/08/14 00:24:53;;;;;;;7.63;5.15;;;15.50;99.90;;;;;;5118074;27;20142;-75
2023/08/14 00:27:19;;;;;;;7.20;5.28;;;15.40;99.90;;;;;;5118184;27;20107;-75
2023/08/14 00:29:45;;;;;;;8.15;5.00;;;15.40;99.90;;;;;;5118309;27;20130;-75
2023/08/14 00:32:11;;;;;;;7.53;5.28;;;15.40;99.90;;;;;;5118503;27;20180;-75
2023/08/14 00:34:37;;;;;;;8.35;5.20;;;15.40;99.90;;;;;;5118603;27;20435;-75
2023/08/14 00:37:03;;;;;;;9.32;5.47;;;15.40;99.90;;;;;;5136594;27;20507;-75
2023/08/14 00:39:28;;;;;;;7.93;5.40;;;15.30;99.90;;;;;;5136598;27;20490;-75
2023/08/14 00:41:54;;;;;;;8.88;5.13;;;15.30;99.90;;;;;;5118131;27;20107;-75
2023/08/14 00:44:20;;;;;;;8.10;5.80;;;15.30;99.90;;;;;;5117955;27;20043;-75
2023/08/14 00:46:45;;;;;;;12.00;5.95;;;15.20;99.90;;;;;;5118173;27;20054;-75
2023/08/14 00:49:11;;;;;;;8.90;5.03;;;15.20;99.90;;;;;;5117947;27;20047;-75
2023/08/14 00:51:37;;;;;;;7.88;5.10;;;15.20;99.90;;;;;;5136378;27;20046;-75
2023/08/14 00:54:03;;;;;;;8.25;5.13;;;15.20;99.90;;;;;;5136441;27;20453;-75
2023/08/14 00:56:29;;;;;;;8.55;5.43;;;15.20;99.90;;;;;;5118120;27;20050;-75
2023/08/14 00:59:01;;;;;;;8.57;5.68;;;15.20;99.90;;;;;;5117858;27;20122;-74
2023/08/14 01:01:27;;;;;;;6.95;4.80;;;15.20;99.90;;;;;;5117965;27;20054;-75
2023/08/14 01:03:53;;;;;;;9.32;5.07;;;15.10;99.90;;;;;;5117636;27;20047;-75
2023/08/14 01:06:19;;;;;;;6.78;5.05;;;15.10;99.90;;;;;;5117681;27;20043;-75
2023/08/14 01:08:45;;;;;;;8.73;5.32;;;15.10;99.90;;;;;;5117867;27;20031;-75
2023/08/14 01:11:28;;;;;;;9.27;5.30;;;15.20;99.90;;;;;;5135965;27;20051;-75
2023/08/14 01:14:05;;;;;;;9.93;5.50;;;15.20;99.90;;;;;;5136057;27;20045;-75
2023/08/14 01:16:35;;;;;;;9.40;4.78;;;15.30;99.90;;;;;;5135869;27;20083;-75
2023/08/14 01:19:17;;;;;;;6.95;4.40;;;15.30;99.90;;;;;;5117712;27;20060;-75
2023/08/14 01:21:54;;;;;;;7.70;4.88;;;15.30;99.90;;;;;;5136135;27;20383;-75
2023/08/14 01:24:53;;;;;;;6.95;4.72;;;15.30;99.90;;;;;;5116847;27;20058;-75
2023/08/14 01:27:20;;;;;;;6.50;4.57;;;15.30;99.90;;;;;;5117585;27;20070;-75
2023/08/14 01:29:55;;;;;;;8.15;5.15;;;15.30;99.90;;;;;;5117179;27;20557;-75
2023/08/14 01:32:21;;;;;;;8.02;4.90;;;15.30;99.90;;;;;;5117341;27;20543;-74
2023/08/14 01:34:46;;;;;;;7.80;4.82;;;15.30;99.90;;;;;;5117059;27;20040;-75
2023/08/14 01:37:18;;;;;;;6.63;4.80;;;15.30;99.90;;;;;;5117101;27;20047;-75
2023/08/14 01:39:48;;;;;;;7.97;5.00;;;15.30;99.90;;;;;;5117396;27;20046;-75
2023/08/14 01:42:27;;;;;;;7.50;4.53;;;15.30;99.90;;;;;;5117293;27;20051;-75
2023/08/14 01:45:06;;;;;;;7.78;4.65;;;15.30;99.90;;;;;;5116859;27;20055;-74
2023/08/14 01:47:34;;;;;;;8.52;5.38;;;15.30;99.90;;;;;;5116987;27;20077;-74
2023/08/14 01:50:01;;;;;;;8.05;5.20;;;15.30;99.90;;;;;;5116941;27;20517;-74
2023/08/14 01:52:27;;;;;;;8.43;5.13;;;15.30;99.90;;;;;;5116964;27;20051;-74
2023/08/14 01:54:52;;;;;;;9.95;4.80;;;15.30;99.90;;;;;;5116865;27;20047;-74
2023/08/14 01:57:18;;;;;;;11.32;5.80;;;15.30;99.90;;;;;;5116575;27;20088;-74
2023/08/14 01:59:46;;;;;;;8.27;4.82;;;15.20;99.90;;;;;;5116625;27;20043;-75
2023/08/14 02:02:13;;;;;;;7.20;4.75;;;15.30;99.90;;;;;;5116525;27;20475;-75
2023/08/14 02:04:39;;;;;;;8.07;4.85;;;15.20;99.90;;;;;;5116584;27;20043;-74
2023/08/14 02:07:05;;;;;;;7.30;4.90;;;15.20;99.90;;;;;;5116377;27;20128;-74
2023/08/14 02:09:32;;;;;;;7.93;4.45;;;15.30;99.90;;;;;;5134899;27;20050;-74
2023/08/14 02:11:59;;;;;;;8.07;5.05;;;15.30;99.90;;;;;;5116391;27;20426;-74
2023/08/14 02:14:24;;;;;;;9.48;4.93;;;15.20;99.90;;;;;;5116299;27;20176;-74
2023/08/14 02:16:50;;;;;;;8.18;4.53;;;15.20;99.90;;;;;;5116370;27;20114;-74
2023/08/14 02:19:16;;;;;;;8.30;5.10;;;15.30;99.90;;;;;;5116397;27;20047;-74
2023/08/14 02:21:41;;;;;;;7.95;4.80;;;15.30;99.90;;;;;;5116326;27;20046;-75
2023/08/14 02:24:08;;;;;;;6.75;4.43;;;15.30;99.90;;;;;;5116107;28;20163;-74
2023/08/14 02:26:33;;;;;;;7.05;4.78;;;15.20;99.90;;;;;;5116042;27;20154;-74
2023/08/14 02:28:59;;;;;;;9.40;5.10;;;15.20;99.90;;;;;;5116136;28;20490;-75
2023/08/14 02:31:25;;;;;;;9.02;4.60;;;15.20;99.90;;;;;;5115624;27;20134;-74
2023/08/14 02:33:50;;;;;;;8.90;4.47;;;15.30;99.90;;;;;;5134546;27;20479;-75
2023/08/14 02:36:16;;;;;;;7.40;4.18;;;15.30;99.90;;;;;;5134531;27;20398;-75
2023/08/14 02:38:41;;;;;;;7.43;4.40;;;15.30;99.90;;;;;;5134321;28;20046;-75
2023/08/14 02:41:07;;;;;;;8.00;4.55;;;15.30;99.90;;;;;;5134553;28;20047;-74
2023/08/14 02:43:33;;;;;;;9.35;4.97;;;15.30;99.90;;;;;;5115973;28;20043;-75
2023/08/14 02:45:59;;;;;;;6.90;4.60;;;15.40;99.90;;;;;;5116070;28;20039;-74
2023/08/14 02:48:24;;;;;;;7.57;4.90;;;15.30;99.90;;;;;;5116031;28;20125;-74
2023/08/14 02:50:50;;;;;;;9.05;4.40;;;15.40;99.90;;;;;;5115849;28;20049;-75
2023/08/14 02:53:15;;;;;;;10.38;4.90;;;15.40;99.90;;;;;;5116221;28;20047;-75
2023/08/14 02:55:41;;;;;;;8.93;4.47;;;15.40;99.90;;;;;;5115888;28;20043;-74
2023/08/14 02:58:07;;;;;;;6.53;4.78;;;15.40;99.90;;;;;;5115884;28;20500;-74
2023/08/14 03:00:32;;;;;;;9.40;4.75;;;15.40;99.90;;;;;;5116134;28;20050;-74
2023/08/14 03:02:58;;;;;;;6.32;4.40;;;15.40;99.90;;;;;;5115850;28;20498;-75
2023/08/14 03:05:24;;;;;;;8.20;5.00;;;15.40;99.90;;;;;;5115936;28;20666;-74
2023/08/14 03:07:49;;;;;;;8.50;5.40;;;15.30;99.90;;;;;;5115877;28;20035;-74
2023/08/14 03:10:15;;;;;;;9.00;4.65;;;15.30;99.90;;;;;;5115711;28;20371;-75
2023/08/14 03:12:40;;;;;;;7.22;4.78;;;15.30;99.90;;;;;;5115694;28;20099;-74
2023/08/14 03:15:06;;;;;;;8.57;5.70;;;15.30;99.90;;;;;;5115754;28;20043;-74
2023/08/14 03:17:32;;;;;;;9.30;5.10;;;15.30;99.90;;;;;;5134303;28;20088;-74
2023/08/14 03:19:58;;;;;;;9.70;5.10;;;15.20;99.90;;;;;;5115790;28;20500;-75
2023/08/14 03:22:23;;;;;;;8.80;5.40;;;15.30;99.90;;;;;;5115730;28;20095;-74
2023/08/14 03:24:49;;;;;;;9.10;5.53;;;15.20;99.90;;;;;;5115580;28;20104;-75
2023/08/14 03:27:14;;;;;;;9.18;5.57;;;15.20;99.90;;;;;;5115844;28;20402;-75
2023/08/14 03:29:40;;;;;;;9.30;5.57;;;15.20;99.90;;;;;;5115782;28;20043;-74
2023/08/14 03:32:06;;;;;;;10.43;5.90;;;15.20;99.90;;;;;;5115912;28;20368;-74
2023/08/14 03:34:31;;;;;;;10.40;5.45;;;15.10;99.90;;;;;;5115810;28;20046;-75
2023/08/14 03:36:57;;;;;;;8.10;5.90;;;15.10;99.90;;;;;;5115626;28;20397;-74
2023/08/14 03:39:23;;;;;;;9.18;5.18;;;15.10;99.90;;;;;;5115433;28;20051;-74
2023/08/14 03:41:48;;;;;;;9.43;5.63;;;15.10;99.90;;;;;;5134165;27;20051;-74
2023/08/14 03:44:14;;;;;;;10.20;6.13;;;15.10;99.90;;;;;;5137648;27;20050;-75
2023/08/14 03:46:40;;;;;;;8.60;5.35;;;15.10;99.90;;;;;;5119020;27;20043;-74
2023/08/14 03:49:08;;;;;;;8.80;5.75;;;15.00;99.90;;;;;;5119035;27;20050;-74
2023/08/14 03:51:34;;;;;;;10.27;6.30;;;15.00;99.90;;;;;;5119173;27;20039;-75
2023/08/14 03:53:59;;;;;;;10.00;5.45;;;15.00;99.90;;;;;;5119225;27;20054;-75
2023/08/14 03:56:25;;;;;;;8.95;5.65;;;15.00;99.90;;;;;;5119215;27;20359;-75
2023/08/14 03:58:53;;;;;;;10.95;5.45;;;14.90;99.90;;;;;;5118867;27;20435;-75
2023/08/14 04:01:19;;;;;;;10.18;5.78;;;14.90;99.90;;;;;;5137233;27;20572;-75
2023/08/14 04:03:45;;;;;;;10.85;5.85;;;14.90;99.90;;;;;;5136820;27;20054;-75
2023/08/14 04:06:10;;;;;;;8.90;6.30;;;14.90;99.90;;;;;;5136898;27;20487;-75
2023/08/14 04:08:36;;;;;;;10.45;5.85;;;14.90;99.90;;;;;;5117425;27;20043;-74
2023/08/14 04:11:04;;;;;;;9.88;5.63;;;14.90;99.90;;;;;;5117857;27;20051;-75
2023/08/14 04:13:30;;;;;;;10.40;5.80;;;14.90;99.90;;;;;;5118450;27;20051;-75
2023/08/14 04:15:59;;;;;;;11.70;6.40;;;14.90;99.90;;;;;;5118461;27;20043;-74
2023/08/14 04:18:26;;;;;;;7.00;5.63;;;14.90;99.90;;;;;;5136680;27;20491;-75
2023/08/14 04:20:52;;;;;;;8.80;5.15;;;14.80;99.90;;;;;;5118272;27;20079;-74
2023/08/14 04:23:18;;;;;;;9.13;6.30;;;14.80;99.90;;;;;;5118086;27;20100;-74
2023/08/14 04:25:43;;;;;;;9.55;6.53;;;14.80;99.90;;;;;;5118120;27;20130;-74
2023/08/14 04:28:09;;;;;;;8.98;6.03;;;14.80;99.90;;;;;;5118563;27;20043;-74
2023/08/14 04:30:35;;;;;;;9.70;6.18;;;14.80;99.90;;;;;;5118361;27;20398;-74
2023/08/14 04:33:00;;;;;;;9.73;6.38;;;14.80;99.90;;;;;;5118203;27;20047;-74
2023/08/14 04:35:26;;;;;;;10.32;7.00;;;14.80;99.90;;;;;;5136468;27;20402;-74
2023/08/14 04:37:51;;;;;;;10.55;7.30;;;14.80;99.90;;;;;;5118063;27;20191;-74
2023/08/14 04:40:17;;;;;;;10.98;7.85;;;14.80;99.90;;;;;;5118277;27;20058;-75
2023/08/14 04:42:43;;;;;;;14.13;7.82;;;14.80;99.90;;;;;;5117929;27;20042;-75
2023/08/14 04:45:11;;;;;;;11.27;7.07;;;14.80;99.90;;;;;;5118179;27;20047;-74
2023/08/14 04:47:37;;;;;;;14.20;8.32;;;14.80;99.90;;;;;;5117999;27;20190;-74
2023/08/14 04:50:03;;;;;;;10.15;7.97;;;14.90;99.90;;;;;;5117892;27;20476;-74
2023/08/14 04:52:32;;;;;;;11.65;7.55;;;14.90;99.90;;;;;;5117848;27;20035;-74
2023/08/14 04:54:58;;;;;;;11.55;8.23;;;14.90;99.90;;;;;;5117433;27;20049;-74
2023/08/14 04:57:23;;;;;;;11.55;7.40;;;14.90;99.90;;;;;;5117675;27;20043;-74
2023/08/14 04:59:49;;;;;;;11.02;8.02;;;14.90;99.90;;;;;;5117853;27;20039;-74
2023/08/14 05:02:15;;;;;;;15.40;8.93;;;14.90;99.90;;;;;;5117580;27;20110;-74
2023/08/14 05:04:40;;;;;;;13.98;8.57;;;14.90;99.90;;;;;;5117402;27;20043;-74
2023/08/14 05:07:06;;;;;;;11.48;8.02;;;14.90;99.90;;;;;;5117374;27;20121;-74
2023/08/14 05:09:32;;;;;;;13.80;8.57;;;15.00;99.90;;;;;;5117457;27;20066;-74
2023/08/14 05:11:58;;;;;;;15.60;8.23;;;15.00;99.90;;;;;;5117528;27;20043;-75
2023/08/14 05:14:24;;;;;;;10.73;8.40;;;15.00;99.90;;;;;;5117247;27;20502;-75
2023/08/14 05:16:50;;;;;;;15.25;8.65;;;15.00;99.90;;;;;;5117426;27;20070;-74
2023/08/14 05:19:15;;;;;;;10.18;8.07;;;15.10;99.90;;;;;;5117411;27;20367;-74
2023/08/14 05:21:41;;;;;;;12.07;8.55;;;15.10;99.90;;;;;;5117346;27;20047;-75
2023/08/14 05:24:08;;;;;;;14.15;9.10;;;15.20;99.90;;;;;;5116628;27;20047;-75
2023/08/14 05:26:34;;;;;;;15.05;8.50;;;15.20;99.90;;;;;;5117007;27;20494;-74
2023/08/14 05:28:59;;;;;;;11.07;8.65;;;15.20;99.90;;;;;;5117314;27;20047;-74
2023/08/14 05:31:28;;;;;;;12.70;8.90;;;15.20;99.90;;;;;;5135261;27;20130;-74
2023/08/14 05:33:53;;;;;;;12.60;8.40;;;15.30;99.90;;;;;;5117164;27;20042;-74
2023/08/14 05:36:19;;;;;;;13.68;9.07;;;15.30;99.90;;;;;;5116864;27;20035;-74
2023/08/14 05:38:47;;;;;;;13.80;9.77;;;15.30;99.90;;;;;;5117208;27;20088;-74
2023/08/14 05:41:13;;;;;;;12.38;9.23;;;15.40;99.90;;;;;;5116678;27;20071;-74
2023/08/14 05:43:38;;;;;;;14.10;9.25;;;15.40;99.90;;;;;;5116679;27;20097;-74
2023/08/14 05:46:04;;;;;;;10.93;8.45;;;15.50;99.90;;;;;;5116817;27;20047;-74
2023/08/14 05:48:30;;;;;;;13.77;9.25;;;15.50;99.90;;;;;;5116581;27;20482;-74
2023/08/14 05:50:55;;;;;;;15.07;9.07;;;15.50;99.90;;;;;;5134925;27;20051;-74
2023/08/14 05:53:22;;;;;;;13.65;8.93;;;15.50;99.90;;;;;;5116524;27;20118;-74
2023/08/14 05:55:50;;;;;;;12.20;8.75;;;15.60;99.90;;;;;;5116462;27;20046;-75
2023/08/14 05:58:16;;;;;;;16.95;9.70;;;15.50;99.90;;;;;;5116323;27;20470;-75
2023/08/14 06:00:42;;;;;;;17.65;10.40;;;15.60;99.90;;;;;;5116588;27;20043;-74
2023/08/14 06:03:08;;;;;;;12.88;9.15;;;15.60;99.90;;;;;;5116308;27;20416;-75
2023/08/14 06:05:35;;;;;;;12.45;9.52;;;15.60;99.90;;;;;;5115936;27;20104;-74
2023/08/14 06:08:01;;;;;;;15.65;9.30;;;15.70;99.90;;;;;;5116257;27;20482;-74
2023/08/14 06:10:27;;;;;;;14.70;9.10;;;15.70;99.90;;;;;;5116177;27;20501;-74
2023/08/14 06:12:53;;;;;;;13.27;8.52;;;15.80;99.90;;;;;;5116472;27;20046;-74
2023/08/14 06:15:19;;;;;;;12.50;9.27;;;15.80;99.90;;;;;;5116138;27;20454;-74
2023/08/14 06:17:46;;;;;;;12.30;8.93;;;15.80;99.90;;;;;;5116144;27;20414;-74
2023/08/14 06:20:12;;;;;;;13.18;9.10;;;15.80;99.90;;;;;;5116394;27;20067;-74
2023/08/14 06:22:43;;;;;;;12.40;8.77;;;15.90;99.90;;;;;;5115995;28;20386;-74
2023/08/14 06:25:10;;;;;;;13.82;9.20;;;15.90;99.90;;;;;;5116027;28;20047;-75
2023/08/14 06:27:37;;;;;;;15.10;8.75;;;16.00;99.90;;;;;;5116116;27;20100;-74
2023/08/14 06:30:05;;;;;;;16.13;9.45;;;16.00;99.90;;;;;;5116099;28;20043;-74
2023/08/14 06:32:30;;;;;;;11.82;8.77;;;16.10;99.90;;;;;;5115963;27;20434;-75
2023/08/14 06:34:56;;;;;;;11.95;9.25;;;16.10;99.90;;;;;;5115973;28;20481;-74
2023/08/14 06:37:22;;;;;;;13.18;9.65;;;16.20;99.90;;;;;;5115885;28;20043;-74
2023/08/14 06:39:47;;;;;;;17.10;9.63;;;16.20;99.90;;;;;;5116101;28;20130;-74
2023/08/14 06:42:13;;;;;;;13.13;9.43;;;16.30;99.90;;;;;;5116157;28;20047;-74
2023/08/14 06:44:39;;;;;;;14.55;9.25;;;16.30;99.90;;;;;;5115924;28;20111;-75
2023/08/14 06:47:05;;;;;;;15.50;8.88;;;16.40;99.90;;;;;;5115841;28;20122;-75
2023/08/14 06:49:31;;;;;;;13.88;10.05;;;16.40;99.90;;;;;;5115818;28;20407;-74
2023/08/14 06:51:57;;;;;;;14.27;9.57;;;16.50;99.90;;;;;;5116088;28;20134;-74
2023/08/14 06:54:22;;;;;;;15.05;9.18;;;16.50;99.90;;;;;;5115720;28;20047;-75
2023/08/14 06:56:48;;;;;;;14.68;9.05;;;16.60;99.90;;;;;;5110760;28;20055;-73
2023/08/14 06:59:14;;;;;;;13.60;8.05;;;16.70;99.90;;;;;;5122315;28;20078;-73
2023/08/14 07:01:40;;;;;;;12.50;8.98;;;16.80;99.90;;;;;;5113601;28;20066;-74
2023/08/14 07:04:06;;;;;;;14.68;8.13;;;16.80;99.90;;;;;;5113219;28;20135;-73
2023/08/14 07:06:32;;;;;;;14.68;7.57;;;16.90;99.90;;;;;;5095297;28;20075;-73
2023/08/14 07:08:57;;;;;;;12.02;8.50;;;17.00;99.90;;;;;;5095028;28;20062;-73
2023/08/14 07:11:23;;;;;;;12.32;7.82;;;17.10;99.90;;;;;;5095223;28;20047;-73
2023/08/14 07:13:48;;;;;;;10.77;7.80;;;17.10;99.90;;;;;;5113224;28;20509;-74
2023/08/14 07:16:14;;;;;;;12.20;8.02;;;17.20;99.90;;;;;;5096090;28;20044;-73
2023/08/14 07:18:40;;;;;;;11.02;7.70;;;17.20;99.90;;;;;;5099134;28;20039;-73
2023/08/14 07:21:05;;;;;;;10.18;7.43;;;17.30;99.90;;;;;;5099229;28;20043;-73
2023/08/14 07:23:32;;;;;;;12.45;7.70;;;17.30;99.90;;;;;;5098756;28;20043;-74
2023/08/14 07:26:03;;;;;;;9.20;6.65;;;17.40;99.90;;;;;;5095200;28;20131;-74
2023/08/14 07:28:29;;;;;;;9.80;7.05;;;17.50;99.90;;;;;;5095422;28;20059;-74
2023/08/14 07:30:55;;;;;;;10.75;6.43;;;17.50;99.90;;;;;;5095444;28;20044;-74
2023/08/14 07:33:20;;;;;;;10.98;6.60;;;17.60;99.90;;;;;;5096514;28;20043;-75
2023/08/14 07:35:46;;;;;;;9.93;5.93;;;17.60;99.90;;;;;;5095255;28;20131;-75
2023/08/14 07:38:12;;;;;;;10.27;6.03;;;17.80;99.90;;;;;;5096757;28;20044;-75
2023/08/14 07:40:38;;;;;;;10.20;6.13;;;17.90;99.90;;;;;;5096376;28;20046;-75
2023/08/14 07:43:10;;;;;;;7.82;5.28;;;18.00;99.90;;;;;;5096623;28;20123;-75
2023/08/14 07:45:35;;;;;;;9.52;5.93;;;18.00;99.90;;;;;;5095069;28;20047;-74
2023/08/14 07:48:01;;;;;;;11.07;5.53;;;18.00;99.90;;;;;;5095222;28;20059;-73
2023/08/14 07:50:26;;;;;;;9.70;5.78;;;18.10;99.90;;;;;;5096492;28;20047;-75
2023/08/14 07:52:52;;;;;;;7.80;5.10;;;18.10;99.90;;;;;;5100984;27;20433;-75
2023/08/14 07:55:18;;;;;;;8.75;4.55;;;18.20;99.90;;;;;;5104390;27;20051;-75
2023/08/14 07:57:45;;;;;;;8.02;5.20;;;18.20;99.90;;;;;;5109380;27;20040;-74
2023/08/14 08:00:15;;;;;;;9.85;4.65;;;18.20;99.90;;;;;;5103441;28;20059;-74
2023/08/14 08:02:42;;;;;;;6.85;4.35;;;18.20;99.90;;;;;;5115216;27;20047;-75
2023/08/14 08:05:08;;;;;;;8.27;4.00;;;18.20;99.90;;;;;;5105887;28;20055;-75
2023/08/14 08:07:34;;;;;;;8.20;4.32;;;18.30;99.90;;;;;;5094776;28;20065;-74
2023/08/14 08:10:01;;;;;;;7.03;4.28;;;18.30;99.90;;;;;;5105123;28;20044;-75
2023/08/14 08:12:27;;;;;;;7.68;4.50;;;18.50;99.90;;;;;;5096866;28;20040;-75
2023/08/14 08:14:52;;;;;;;7.55;4.07;;;18.50;99.90;;;;;;5106073;28;20192;-75
2023/08/14 08:17:18;;;;;;;6.38;4.15;;;18.60;99.90;;;;;;5094579;28;20052;-75
2023/08/14 08:19:46;;;;;;;7.05;4.63;;;18.70;99.90;;;;;;5095974;28;20043;-74
2023/08/14 08:22:12;;;;;;;7.90;3.92;;;18.70;99.90;;;;;;5106831;28;20513;-74
2023/08/14 08:24:38;;;;;;;7.38;3.33;;;18.70;99.90;;;;;;5092915;28;20410;-75
2023/08/14 08:27:03;;;;;;;6.35;3.35;;;18.80;99.90;;;;;;5105260;28;20132;-75
2023/08/14 08:29:29;;;;;;;4.53;2.83;;;18.90;99.90;;;;;;5105103;28;20407;-74
2023/08/14 08:31:55;;;;;;;4.85;3.00;;;18.90;99.90;;;;;;5102814;28;20050;-74
2023/08/14 08:34:20;;;;;;;6.10;3.05;;;19.00;99.90;;;;;;5104170;27;20058;-75
2023/08/14 08:36:46;;;;;;;6.65;2.90;;;19.00;99.90;;;;;;5103708;28;20421;-74
2023/08/14 08:39:12;;;;;;;5.40;2.35;;;19.20;99.90;;;;;;5103921;27;20031;-75
2023/08/14 08:41:44;;;;;;;5.85;2.28;;;19.20;99.90;;;;;;5105839;28;20047;-75
2023/08/14 08:44:20;;;;;;;4.85;2.22;;;19.40;99.90;;;;;;5103458;28;20059;-75
2023/08/14 08:47:09;;;;;;;2.92;1.73;;;19.40;99.90;;;;;;5103709;28;20524;-75
2023/08/14 08:49:36;;;;;;;5.65;1.98;;;19.50;99.90;;;;;;5105278;28;20130;-75
2023/08/14 08:52:03;;;;;;;6.75;2.08;;;19.60;99.90;;;;;;5108150;27;20114;-74
2023/08/14 08:54:33;;;;;;;6.60;2.20;;;19.60;99.90;;;;;;5102893;28;20043;-75
2023/08/14 08:56:59;;;;;;;3.65;1.60;;;19.60;99.90;;;;;;5100864;28;20039;-75
2023/08/14 08:59:26;;;;;;;4.38;1.70;;;19.60;99.90;;;;;;5103627;28;20445;-74
2023/08/14 09:01:52;;;;;;;3.50;1.55;;;19.60;99.90;;;;;;5100828;28;20032;-75
2023/08/14 09:04:18;;;;;;;5.78;1.88;;;19.60;99.90;;;;;;5107238;28;20036;-74
2023/08/14 09:06:44;;;;;;;4.35;1.48;;;19.60;99.90;;;;;;5113522;28;20088;-75
2023/08/14 09:09:12;;;;;;;5.40;1.83;;;19.70;99.90;;;;;;5113864;28;20491;-74
2023/08/14 09:11:41;;;;;;;3.10;1.35;;;19.70;99.90;;;;;;5113589;28;20051;-75
2023/08/14 09:14:07;;;;;;;4.05;1.40;;;19.70;99.90;;;;;;5113651;28;20062;-75
2023/08/14 09:16:32;;;;;;;4.75;1.48;;;19.70;99.90;;;;;;5111711;27;20039;-75
2023/08/14 09:18:59;;;;;;;4.40;1.20;;;19.70;99.90;;;;;;5112150;28;20173;-75
2023/08/14 09:21:26;;;;;;;6.05;1.48;;;19.70;99.90;;;;;;5111726;27;20172;-75
2023/08/14 09:23:52;;;;;;;3.80;1.20;;;19.70;99.90;;;;;;5111678;28;20132;-75
2023/08/14 09:26:19;;;;;;;5.10;1.40;;;19.80;99.90;;;;;;5112752;28;20036;-75
2023/08/14 09:28:48;;;;;;;4.10;1.13;;;19.80;99.90;;;;;;5113459;28;20047;-75
2023/08/14 09:31:14;;;;;;;5.05;1.15;;;19.70;99.90;;;;;;5111643;28;20040;-75
2023/08/14 09:33:42;;;;;;;3.20;1.30;;;19.70;99.90;;;;;;5114300;28;20462;-75
2023/08/14 09:36:08;;;;;;;3.10;1.30;;;19.80;99.90;;;;;;5113017;28;20039;-75
2023/08/14 09:38:34;;;;;;;3.03;1.17;;;20.00;99.90;;;;;;5111327;28;20036;-75
2023/08/14 09:41:01;;;;;;;3.83;1.00;;;20.10;99.90;;;;;;5109997;28;20077;-75
2023/08/14 09:43:29;;;;;;;4.35;1.30;;;20.20;99.90;;;;;;5110886;28;20123;-75
2023/08/14 09:45:59;;;;;;;3.80;0.93;;;20.40;99.90;;;;;;5110999;27;20055;-75
2023/08/14 09:48:45;;;;;;;6.15;1.20;;;20.50;99.90;;;;;;5110156;28;20588;-75
2023/08/14 09:51:16;;;;;;;6.00;1.25;;;20.70;99.90;;;;;;5097853;28;20073;-75
2023/08/14 09:53:50;;;;;;;4.78;1.40;;;20.90;99.90;;;;;;5103991;28;20042;-75
2023/08/14 09:56:18;;;;;;;4.25;0.90;;;21.00;99.90;;;;;;5111152;27;20062;-75
2023/08/14 09:58:47;;;;;;;4.78;1.15;;;21.20;99.90;;;;;;5101155;28;20487;-75
2023/08/14 10:01:15;;;;;;;2.38;0.90;;;21.30;99.90;;;;;;5092899;28;20052;-75
2023/08/14 10:03:42;;;;;;;3.00;0.98;;;21.40;99.90;;;;;;5092432;28;20051;-75
2023/08/14 10:06:11;;;;;;;5.25;1.02;;;21.40;99.90;;;;;;5098350;28;20044;-75
2023/08/14 10:08:42;;;;;;;3.08;1.20;;;21.30;99.90;;;;;;5108310;28;20105;-75
2023/08/14 10:11:13;;;;;;;3.55;0.90;;;21.50;99.90;;;;;;5110731;28;20464;-75
2023/08/14 10:13:45;;;;;;;3.60;0.85;;;21.60;99.90;;;;;;5101955;28;20055;-75
2023/08/14 10:16:16;;;;;;;4.88;1.30;;;21.80;99.90;;;;;;5102550;28;20131;-75
2023/08/14 10:18:44;;;;;;;1.65;0.80;;;21.90;99.90;;;;;;5101896;28;20055;-74
2023/08/14 10:21:14;;;;;;;3.45;1.20;;;21.80;99.90;;;;;;5111242;28;20063;-75
2023/08/14 10:23:41;;;;;;;3.70;0.90;;;21.90;99.90;;;;;;5109322;28;20043;-74
2023/08/14 10:26:07;;;;;;;2.83;1.20;;;21.90;99.90;;;;;;5106073;28;20430;-75
2023/08/14 10:28:33;;;;;;;4.20;1.20;;;21.90;99.90;;;;;;5102241;28;20105;-75
2023/08/14 10:31:00;;;;;;;6.95;1.50;;;22.00;99.90;;;;;;5100497;28;20128;-75
2023/08/14 10:33:26;;;;;;;2.58;1.20;;;22.10;99.90;;;;;;5106172;28;20048;-75
2023/08/14 10:35:54;;;;;;;4.68;1.60;;;22.10;99.90;;;;;;5107568;28;20491;-75
2023/08/14 10:38:20;;;;;;;2.35;0.85;;;22.10;99.90;;;;;;5111085;28;20558;-75
2023/08/14 10:41:03;;;;;;;5.80;1.30;;;22.20;99.90;;;;;;5108388;28;20152;-75
2023/08/14 10:43:32;;;;;;;4.10;1.20;;;22.20;99.90;;;;;;5098024;28;20388;-74
2023/08/14 10:45:58;;;;;;;5.20;1.27;;;22.20;99.90;;;;;;5102952;28;20593;-75
2023/08/14 10:48:24;;;;;;;4.35;1.55;;;22.30;99.90;;;;;;5099631;28;20048;-75
2023/08/14 10:50:59;;;;;;;4.72;1.10;;;22.40;99.90;;;;;;5092597;28;20036;-75
2023/08/14 10:53:24;;;;;;;3.83;1.10;;;22.50;99.90;;;;;;5105064;28;20062;-75
2023/08/14 10:55:53;;;;;;;4.82;1.00;;;22.60;99.90;;;;;;5100350;28;20488;-74
2023/08/14 10:58:36;;;;;;;3.53;1.00;;;22.60;99.90;;;;;;5095940;28;20052;-74
2023/08/14 11:01:06;;;;;;;3.85;1.08;;;22.80;99.90;;;;;;5096360;28;20055;-74
2023/08/14 11:03:34;;;;;;;4.30;1.35;;;22.80;99.90;;;;;;5095907;28;20051;-74
2023/08/14 11:06:00;;;;;;;5.32;1.17;;;22.80;99.90;;;;;;5097191;28;20395;-74
2023/08/14 11:08:29;;;;;;;3.30;0.98;;;22.90;99.90;;;;;;5096007;28;20040;-75
2023/08/14 11:10:56;;;;;;;4.03;1.10;;;23.20;99.90;;;;;;5096090;28;20538;-73
2023/08/14 11:13:22;;;;;;;2.97;1.17;;;23.30;99.90;;;;;;5096122;28;20394;-72
2023/08/14 11:15:50;;;;;;;4.03;0.98;;;23.50;99.90;;;;;;5096029;28;20479;-75
2023/08/14 11:18:18;;;;;;;2.58;0.85;;;23.50;99.90;;;;;;5096028;28;20072;-74
2023/08/14 11:21:04;;;;;;;3.88;1.10;;;23.50;99.90;;;;;;5097184;28;20044;-74
2023/08/14 11:23:33;;;;;;;4.72;1.42;;;23.60;99.90;;;;;;5096200;28;20337;-75
2023/08/14 11:25:58;;;;;;;4.75;1.17;;;23.70;99.90;;;;;;5095341;28;20056;-74
2023/08/14 11:28:24;;;;;;;3.10;0.90;;;23.80;99.90;;;;;;5095616;28;20051;-75
2023/08/14 11:30:50;;;;;;;3.35;1.17;;;23.90;99.90;;;;;;5095879;28;20047;-75
2023/08/14 11:33:21;;;;;;;4.35;1.33;;;24.00;99.90;;;;;;5096966;28;20544;-75
2023/08/14 11:35:52;;;;;;;4.03;1.03;;;24.00;99.90;;;;;;5095725;28;20056;-74
2023/08/14 11:38:19;;;;;;;3.90;1.35;;;23.90;99.90;;;;;;5096592;28;20044;-77
2023/08/14 11:40:45;;;;;;;5.22;1.10;;;24.00;99.90;;;;;;5095304;28;20118;-75
2023/08/14 11:43:12;;;;;;;2.67;1.00;;;24.00;99.90;;;;;;5095180;28;20127;-73
2023/08/14 11:45:38;;;;;;;5.78;1.23;;;23.90;99.90;;;;;;5095202;28;20051;-74
2023/08/14 11:48:05;;;;;;;2.67;0.93;;;23.80;99.90;;;;;;5095192;28;20040;-73
2023/08/14 11:50:30;;;;;;;4.63;0.82;;;24.00;99.90;;;;;;5095085;28;20048;-73
2023/08/14 11:52:57;;;;;;;3.30;1.00;;;24.00;99.90;;;;;;5095317;28;20122;-74
2023/08/14 11:55:23;;;;;;;3.97;1.00;;;24.10;99.90;;;;;;5095368;28;20048;-71
2023/08/14 11:57:49;;;;;;;4.13;1.20;;;24.30;99.90;;;;;;5096036;28;20425;-71
2023/08/14 12:00:15;;;;;;;3.53;1.77;;;24.40;99.90;;;;;;5094904;28;20055;-72
2023/08/14 12:02:41;;;;;;;3.85;1.40;;;24.40;99.90;;;;;;5095090;28;20052;-72
2023/08/14 12:05:09;;;;;;;5.38;1.25;;;24.40;99.90;;;;;;5094649;28;20131;-72
2023/08/14 12:07:35;;;;;;;3.97;1.27;;;24.40;99.90;;;;;;5094817;28;20083;-71
2023/08/14 12:10:08;;;;;;;4.45;1.20;;;24.40;99.90;;;;;;5094837;28;20087;-71
2023/08/14 12:12:38;;;;;;;3.20;0.73;;;24.50;99.90;;;;;;5094702;28;20047;-73
2023/08/14 12:15:05;;;;;;;4.40;1.30;;;24.30;99.90;;;;;;5094584;28;20407;-75
2023/08/14 12:17:31;;;;;;;3.75;0.93;;;24.30;99.90;;;;;;5094798;28;20475;-75
2023/08/14 12:19:57;;;;;;;3.53;1.23;;;24.40;99.90;;;;;;5094477;28;20162;-75
2023/08/14 12:22:27;;;;;;;3.55;1.02;;;24.50;99.90;;;;;;5094599;28;20056;-73
2023/08/14 12:24:54;;;;;;;4.53;1.15;;;24.50;99.90;;;;;;5092650;28;20133;-74
2023/08/14 12:27:26;;;;;;;4.57;1.15;;;24.40;99.90;;;;;;5098013;28;20048;-84
2023/08/14 12:29:53;;;;;;;;;;;24.50;99.90;;;;;;5098413;28;20108;-82
2023/08/14 12:32:19;;;;;;;4.30;1.30;;;24.70;99.90;;;;;;5131828;27;19920;-85
2023/08/14 12:34:45;;;;;;;7.72;1.88;;;24.80;99.90;;;;;;5097618;28;20047;-82
2023/08/14 12:37:16;;;;;;;3.30;1.27;;;24.90;99.90;;;;;;5097764;28;20047;-85
2023/08/14 12:39:44;;;;;;;6.77;1.37;;;25.10;99.90;;;;;;5097626;28;20032;-77
2023/08/14 12:42:11;;;;;;;4.28;1.45;;;25.00;99.90;;;;;;5097718;28;20297;-73